Time;durP1;ratioP1;P1;durP2;ratioP2;P2;SDS_P1;SDS_P2;PMS_P1;PMS_P2;Temp;Humidity;BMP_temperature;BMP_pressure;BME280_temperature;BME280_humidity;BME280_pressure;Samples;Min_cycle;Max_cycle;Signal;HPM_P1;HPM_P2
2022/05/17 00:04:11;;;;;;;10.05;7.75;;;;;;;;;;10454385;28;20040;-78
2022/05/17 00:09:11;;;;;;;12.47;9.23;;;;;;;;;;10448165;28;20039;-78
2022/05/17 00:14:13;;;;;;;11.68;8.95;;;;;;;;;;10436624;28;20045;-78
2022/05/17 00:19:16;;;;;;;11.73;7.53;;;;;;;;;;10445372;28;20055;-78
2022/05/17 00:24:20;;;;;;;12.55;8.45;;;;;;;;;;10457108;28;20101;-78
2022/05/17 00:29:22;;;;;;;10.38;7.97;;;;;;;;;;10394390;28;20381;-77
2022/05/17 00:34:24;;;;;;;9.27;8.17;;;;;;;;;;10427367;28;20060;-79
2022/05/17 00:39:24;;;;;;;9.85;7.75;;;;;;;;;;10429355;28;20048;-80
2022/05/17 00:44:43;;;;;;;11.90;8.53;;;;;;;;;;10433735;28;20049;-80
2022/05/17 00:49:50;;;;;;;11.15;7.53;;;;;;;;;;10434197;28;20043;-79
2022/05/17 00:54:54;;;;;;;10.38;7.18;;;;;;;;;;10417867;28;20044;-77
2022/05/17 00:59:58;;;;;;;8.70;7.10;;;;;;;;;;10416418;28;20175;-78
2022/05/17 01:05:01;;;;;;;12.35;7.53;;;;;;;;;;10419455;28;20041;-77
2022/05/17 01:10:33;;;;;;;10.77;7.85;;;;;;;;;;10422284;28;20120;-78
2022/05/17 01:15:35;;;;;;;9.37;6.83;;;;;;;;;;10424627;28;20041;-78
2022/05/17 01:20:35;;;;;;;7.57;6.60;;;;;;;;;;10444396;28;20061;-78
2022/05/17 01:25:36;;;;;;;7.97;6.40;;;;;;;;;;10433786;28;20037;-78
2022/05/17 01:30:37;;;;;;;7.60;6.80;;;;;;;;;;10431465;28;20063;-78
2022/05/17 01:35:38;;;;;;;10.75;7.57;;;;;;;;;;10424259;28;20526;-78
2022/05/17 01:40:40;;;;;;;9.30;6.83;;;;;;;;;;10419339;28;20079;-79
2022/05/17 01:45:40;;;;;;;10.07;7.40;;;;;;;;;;10416846;28;20044;-79
2022/05/17 01:50:43;;;;;;;11.38;7.63;;;;;;;;;;10413461;28;20053;-79
2022/05/17 01:55:43;;;;;;;8.65;7.10;;;;;;;;;;10412227;28;20053;-78
2022/05/17 02:00:45;;;;;;;11.13;8.03;;;;;;;;;;10417089;28;20041;-78
2022/05/17 02:05:46;;;;;;;10.10;8.00;;;;;;;;;;10432730;28;20271;-78
2022/05/17 02:10:49;;;;;;;9.68;7.95;;;;;;;;;;10414628;28;20053;-79
2022/05/17 02:15:51;;;;;;;10.93;8.93;;;;;;;;;;10432417;28;20066;-79
2022/05/17 02:20:51;;;;;;;10.93;8.60;;;;;;;;;;10416934;28;20038;-78
2022/05/17 02:25:51;;;;;;;13.60;9.57;;;;;;;;;;10415937;28;20148;-79
2022/05/17 02:30:52;;;;;;;11.87;9.10;;;;;;;;;;10415466;28;20207;-78
2022/05/17 02:35:52;;;;;;;12.53;9.77;;;;;;;;;;10413782;28;20050;-79
2022/05/17 02:40:53;;;;;;;12.85;9.35;;;;;;;;;;10409502;28;20663;-78
2022/05/17 02:45:53;;;;;;;13.70;9.60;;;;;;;;;;10441573;28;20040;-79
2022/05/17 02:50:53;;;;;;;13.20;9.00;;;;;;;;;;10457450;28;20041;-77
2022/05/17 02:55:54;;;;;;;13.27;9.90;;;;;;;;;;10419615;28;20033;-78
2022/05/17 03:00:54;;;;;;;13.60;10.70;;;;;;;;;;10421300;28;20041;-77
2022/05/17 03:05:54;;;;;;;16.93;10.83;;;;;;;;;;10402247;28;20033;-79
2022/05/17 03:10:55;;;;;;;12.48;9.77;;;;;;;;;;10418750;28;20046;-77
2022/05/17 03:15:55;;;;;;;16.08;11.55;;;;;;;;;;10428924;28;20099;-77
2022/05/17 03:20:55;;;;;;;16.63;10.87;;;;;;;;;;10423659;28;20457;-77
2022/05/17 03:25:56;;;;;;;15.70;11.93;;;;;;;;;;10429028;28;20041;-78
2022/05/17 03:30:56;;;;;;;15.53;12.10;;;;;;;;;;10426821;28;20046;-78
2022/05/17 03:35:57;;;;;;;15.65;12.35;;;;;;;;;;10440794;28;20069;-78
2022/05/17 03:41:00;;;;;;;19.05;12.60;;;;;;;;;;10439981;28;20045;-78
2022/05/17 03:46:01;;;;;;;16.02;12.38;;;;;;;;;;10459845;28;20038;-78
2022/05/17 03:51:13;;;;;;;15.82;11.95;;;;;;;;;;10437289;28;20057;-79
2022/05/17 03:56:14;;;;;;;15.45;11.75;;;;;;;;;;10435727;28;20045;-78
2022/05/17 04:01:15;;;;;;;17.50;12.25;;;;;;;;;;10437953;28;20045;-77
2022/05/17 04:06:15;;;;;;;17.93;12.90;;;;;;;;;;10443721;28;20045;-76
2022/05/17 04:11:17;;;;;;;17.00;13.00;;;;;;;;;;10427283;28;20284;-77
2022/05/17 04:16:17;;;;;;;17.98;13.30;;;;;;;;;;10433577;28;20152;-77
2022/05/17 04:21:18;;;;;;;22.00;14.98;;;;;;;;;;10431663;28;20082;-76
2022/05/17 04:26:18;;;;;;;18.27;14.43;;;;;;;;;;10441764;28;20038;-78
2022/05/17 04:31:18;;;;;;;19.33;14.00;;;;;;;;;;10427981;28;20175;-78
2022/05/17 04:36:22;;;;;;;19.05;14.63;;;;;;;;;;10433898;28;20112;-80
2022/05/17 04:41:24;;;;;;;23.60;15.88;;;;;;;;;;10422635;28;20103;-78
2022/05/17 04:46:24;;;;;;;19.42;13.95;;;;;;;;;;10418806;28;20050;-78
2022/05/17 04:51:25;;;;;;;18.05;13.65;;;;;;;;;;10417971;28;20071;-78
2022/05/17 04:56:25;;;;;;;18.73;14.67;;;;;;;;;;10417902;28;20507;-76
2022/05/17 05:01:26;;;;;;;18.98;14.82;;;;;;;;;;10414958;28;20033;-77
2022/05/17 05:06:27;;;;;;;16.80;14.45;;;;;;;;;;10420148;28;20052;-77
2022/05/17 05:11:28;;;;;;;19.13;14.27;;;;;;;;;;10420765;28;20053;-79
2022/05/17 05:16:30;;;;;;;21.53;15.03;;;;;;;;;;10425642;28;20057;-79
2022/05/17 05:21:32;;;;;;;16.60;13.65;;;;;;;;;;10431594;28;20318;-78
2022/05/17 05:26:33;;;;;;;18.58;15.13;;;;;;;;;;10434629;28;20064;-78
2022/05/17 05:31:34;;;;;;;19.00;14.38;;;;;;;;;;10430714;28;20047;-77
2022/05/17 05:36:34;;;;;;;21.43;15.87;;;;;;;;;;10431788;28;20116;-76
2022/05/17 05:41:34;;;;;;;20.87;14.83;;;;;;;;;;10436777;28;20124;-77
2022/05/17 05:46:34;;;;;;;19.42;14.80;;;;;;;;;;10427856;28;20034;-77
2022/05/17 05:51:36;;;;;;;19.53;14.00;;;;;;;;;;10422206;28;20440;-77
2022/05/17 05:56:38;;;;;;;21.85;17.00;;;;;;;;;;10419440;28;20078;-77
2022/05/17 06:01:39;;;;;;;20.27;15.60;;;;;;;;;;10415208;28;20049;-78
2022/05/17 06:06:42;;;;;;;20.98;16.60;;;;;;;;;;10413897;28;20037;-77
2022/05/17 06:11:42;;;;;;;19.48;16.08;;;;;;;;;;10413727;28;20096;-77
2022/05/17 06:16:42;;;;;;;17.60;15.70;;;;;;;;;;10433781;28;20048;-76
2022/05/17 06:21:43;;;;;;;18.93;14.27;;;;;;;;;;10419618;28;20565;-77
2022/05/17 06:26:45;;;;;;;21.17;15.52;;;;;;;;;;10425456;28;20477;-77
2022/05/17 06:31:45;;;;;;;20.15;16.33;;;;;;;;;;10423533;28;20045;-78
2022/05/17 06:36:45;;;;;;;23.73;15.07;;;;;;;;;;10424222;28;20120;-77
2022/05/17 06:41:47;;;;;;;21.43;16.40;;;;;;;;;;10423155;28;20762;-78
2022/05/17 06:46:47;;;;;;;20.63;14.88;;;;;;;;;;10403880;28;20599;-77
2022/05/17 06:51:48;;;;;;;18.83;14.87;;;;;;;;;;10428708;28;20135;-79
2022/05/17 06:56:49;;;;;;;21.40;16.88;;;;;;;;;;10435331;28;20519;-78
2022/05/17 07:01:49;;;;;;;21.00;15.33;;;;;;;;;;10446329;28;20095;-78
2022/05/17 07:06:50;;;;;;;19.27;14.67;;;;;;;;;;10461037;28;20420;-78
2022/05/17 07:17:12;;;;;;;17.83;12.90;;;;;;;;;;10424500;28;20067;-80
2022/05/17 07:22:13;;;;;;;18.57;13.90;;;;;;;;;;10425266;28;20504;-78
2022/05/17 07:27:15;;;;;;;17.25;14.38;;;;;;;;;;10445669;28;20060;-78
2022/05/17 07:32:15;;;;;;;21.23;15.70;;;;;;;;;;10429953;28;20472;-77
2022/05/17 07:37:16;;;;;;;20.05;15.23;;;;;;;;;;10434038;28;20037;-77
2022/05/17 07:42:17;;;;;;;21.17;15.18;;;;;;;;;;10417979;28;20116;-81
2022/05/17 07:47:26;;;;;;;19.17;14.68;;;;;;;;;;10426172;28;20037;-80
2022/05/17 07:52:27;;;;;;;19.25;13.85;;;;;;;;;;10418744;28;20087;-79
2022/05/17 07:57:27;;;;;;;22.08;13.85;;;;;;;;;;10422881;28;20530;-81
2022/05/17 08:02:28;;;;;;;17.50;14.30;;;;;;;;;;10402701;28;20369;-79
2022/05/17 08:07:28;;;;;;;18.25;14.35;;;;;;;;;;10422062;28;20100;-78
2022/05/17 08:12:29;;;;;;;19.73;14.73;;;;;;;;;;10430413;28;20042;-79
2022/05/17 08:17:30;;;;;;;16.15;13.57;;;;;;;;;;10403495;28;20124;-79
2022/05/17 08:22:30;;;;;;;21.13;14.43;;;;;;;;;;10420808;28;20303;-77
2022/05/17 08:27:36;;;;;;;18.17;14.70;;;;;;;;;;10422220;28;20500;-77
2022/05/17 08:38:03;;;;;;;18.63;13.10;;;;;;;;;;10433154;28;20097;-79
2022/05/17 08:43:07;;;;;;;16.05;12.30;;;;;;;;;;10421446;28;20376;-78
2022/05/17 08:48:12;;;;;;;16.85;12.57;;;;;;;;;;10447747;28;20033;-79
2022/05/17 08:53:16;;;;;;;14.93;12.73;;;;;;;;;;10428807;28;20059;-79
2022/05/17 08:58:28;;;;;;;15.05;12.68;;;;;;;;;;10430627;28;20052;-79
2022/05/17 09:03:30;;;;;;;14.95;10.77;;;;;;;;;;10425778;28;20037;-79
2022/05/17 09:08:33;;;;;;;15.13;11.67;;;;;;;;;;10429080;28;20116;-79
2022/05/17 09:13:36;;;;;;;14.48;11.02;;;;;;;;;;10423837;28;20056;-80
2022/05/17 09:18:39;;;;;;;10.60;8.57;;;;;;;;;;10423461;28;20051;-78
2022/05/17 09:23:42;;;;;;;10.63;8.30;;;;;;;;;;10432247;28;20029;-77
2022/05/17 09:28:48;;;;;;;15.07;9.57;;;;;;;;;;10424378;28;20056;-79
2022/05/17 09:33:49;;;;;;;12.57;9.90;;;;;;;;;;10418691;28;20060;-79
2022/05/17 09:38:51;;;;;;;19.17;12.03;;;;;;;;;;10418886;28;20060;-80
2022/05/17 09:43:54;;;;;;;12.35;9.30;;;;;;;;;;10421590;28;20545;-79
2022/05/17 09:54:33;;;;;;;11.68;8.82;;;;;;;;;;10447297;28;20053;-79
2022/05/17 09:59:34;;;;;;;12.48;9.48;;;;;;;;;;10452265;28;20123;-78
2022/05/17 10:04:41;;;;;;;12.03;9.43;;;;;;;;;;10441949;28;20040;-79
2022/05/17 10:09:42;;;;;;;9.80;6.75;;;;;;;;;;10435405;28;20037;-78
2022/05/17 10:14:52;;;;;;;7.50;4.80;;;;;;;;;;10438244;28;20132;-80
2022/05/17 10:19:53;;;;;;;8.35;6.10;;;;;;;;;;10424681;28;20029;-79
2022/05/17 10:24:57;;;;;;;6.60;5.78;;;;;;;;;;10435393;28;20097;-80
2022/05/17 10:30:02;;;;;;;8.20;6.30;;;;;;;;;;10434622;28;20029;-77
2022/05/17 10:35:09;;;;;;;13.02;9.80;;;;;;;;;;10426745;28;20437;-76
2022/05/17 10:40:12;;;;;;;9.23;5.65;;;;;;;;;;10419916;28;20489;-79
2022/05/17 10:45:18;;;;;;;7.05;5.50;;;;;;;;;;10419733;28;20044;-79
2022/05/17 10:50:32;;;;;;;5.50;4.22;;;;;;;;;;10427273;28;20041;-78
2022/05/17 10:55:46;;;;;;;5.15;4.20;;;;;;;;;;10446169;28;20029;-78
2022/05/17 11:00:51;;;;;;;5.43;4.25;;;;;;;;;;10438112;28;20037;-77
2022/05/17 11:05:53;;;;;;;5.90;4.47;;;;;;;;;;10423157;28;20428;-79
2022/05/17 11:11:11;;;;;;;7.13;5.05;;;;;;;;;;10418806;28;20075;-79
2022/05/17 11:16:29;;;;;;;6.93;5.40;;;;;;;;;;10421073;28;20041;-77
2022/05/17 11:21:48;;;;;;;6.93;5.32;;;;;;;;;;10421265;28;20042;-78
2022/05/17 11:26:51;;;;;;;6.47;5.15;;;;;;;;;;10420951;28;20037;-78
2022/05/17 11:31:54;;;;;;;6.97;4.88;;;;;;;;;;10423095;28;20041;-78
2022/05/17 11:36:58;;;;;;;7.22;4.60;;;;;;;;;;10427687;28;20072;-78
2022/05/17 11:42:06;;;;;;;6.28;5.10;;;;;;;;;;10432241;28;20041;-78
2022/05/17 11:53:24;;;;;;;8.63;6.57;;;;;;;;;;10381537;28;20045;-76
2022/05/17 11:58:28;;;;;;;6.00;5.40;;;;;;;;;;10376240;28;20042;-76
2022/05/17 12:03:46;;;;;;;5.65;4.90;;;;;;;;;;10381992;28;20401;-78
2022/05/17 12:08:49;;;;;;;6.68;5.15;;;;;;;;;;10401598;28;20042;-78
2022/05/17 12:13:53;;;;;;;6.33;3.87;;;;;;;;;;10381905;28;20045;-80
2022/05/17 12:19:00;;;;;;;6.68;4.28;;;;;;;;;;10410083;28;20120;-80
2022/05/17 12:24:14;;;;;;;4.38;3.90;;;;;;;;;;10437030;28;20048;-79
2022/05/17 12:34:36;;;;;;;5.07;3.42;;;;;;;;;;10437395;28;20139;-77
2022/05/17 12:45:00;;;;;;;3.80;2.60;;;;;;;;;;10434252;28;20056;-78
2022/05/17 12:50:01;;;;;;;3.65;2.97;;;;;;;;;;10437755;28;20030;-77
2022/05/17 12:55:05;;;;;;;2.95;2.65;;;;;;;;;;10427128;28;20132;-77
2022/05/17 13:00:08;;;;;;;2.70;2.35;;;;;;;;;;10428827;28;20075;-79
2022/05/17 13:05:25;;;;;;;4.53;2.88;;;;;;;;;;10445255;28;20064;-78
2022/05/17 13:10:26;;;;;;;3.67;3.00;;;;;;;;;;10429782;28;20472;-78
2022/05/17 13:15:28;;;;;;;3.45;3.15;;;;;;;;;;10436932;28;20033;-79
2022/05/17 13:20:29;;;;;;;5.20;3.33;;;;;;;;;;10410056;28;20407;-72
2022/05/17 13:25:38;;;;;;;2.88;2.67;;;;;;;;;;10435132;28;20040;-79
2022/05/17 13:30:45;;;;;;;3.17;2.88;;;;;;;;;;10448715;28;20457;-80
2022/05/17 13:36:01;;;;;;;4.50;2.85;;;;;;;;;;10444904;28;20220;-78
2022/05/17 13:41:04;;;;;;;4.53;2.85;;;;;;;;;;10436840;28;20041;-77
2022/05/17 13:46:21;;;;;;;4.07;2.72;;;;;;;;;;10423051;28;20064;-78
2022/05/17 13:51:29;;;;;;;4.43;2.42;;;;;;;;;;10423403;28;20053;-78
2022/05/17 13:56:32;;;;;;;3.88;2.75;;;;;;;;;;10424644;28;20033;-78
2022/05/17 14:01:37;;;;;;;4.97;2.80;;;;;;;;;;10428830;28;20095;-79
2022/05/17 14:06:43;;;;;;;2.72;2.20;;;;;;;;;;10424791;28;20465;-78
2022/05/17 14:11:49;;;;;;;3.58;2.30;;;;;;;;;;10436169;28;20119;-78
2022/05/17 14:17:01;;;;;;;3.20;2.42;;;;;;;;;;10419067;28;20041;-80
2022/05/17 14:22:03;;;;;;;5.25;2.33;;;;;;;;;;10417636;28;20040;-79
2022/05/17 14:27:04;;;;;;;6.38;2.67;;;;;;;;;;10424461;28;20037;-77
2022/05/17 14:32:05;;;;;;;2.73;2.17;;;;;;;;;;10424213;28;20105;-79
2022/05/17 14:37:06;;;;;;;2.53;2.10;;;;;;;;;;10413806;28;20043;-78
2022/05/17 14:42:07;;;;;;;3.73;2.30;;;;;;;;;;10435035;28;20052;-79
2022/05/17 14:47:08;;;;;;;;;;;;;;;;;;10429506;28;20448;-79
2022/05/17 14:52:09;;;;;;;3.53;2.45;;;;;;;;;;10447152;28;19921;-78
2022/05/17 14:57:10;;;;;;;4.53;2.90;;;;;;;;;;10429945;28;20117;-78
2022/05/17 15:02:15;;;;;;;4.78;2.38;;;;;;;;;;10431525;28;20067;-79
2022/05/17 15:07:18;;;;;;;3.78;2.40;;;;;;;;;;10432173;28;20046;-79
2022/05/17 15:12:20;;;;;;;2.60;2.40;;;;;;;;;;10427215;28;20150;-81
2022/05/17 15:17:21;;;;;;;3.73;2.57;;;;;;;;;;10440775;28;20075;-80
2022/05/17 15:22:22;;;;;;;;;;;;;;;;;;10428438;28;20093;-78
2022/05/17 15:27:24;;;;;;;4.90;2.42;;;;;;;;;;10445628;28;20325;-80
2022/05/17 15:32:24;;;;;;;2.72;2.33;;;;;;;;;;10427746;28;20045;-79
2022/05/17 15:37:25;;;;;;;2.70;2.43;;;;;;;;;;10429146;28;20081;-79
2022/05/17 15:42:25;;;;;;;4.33;2.13;;;;;;;;;;10422622;28;20041;-79
2022/05/17 15:58:04;;;;;;;4.53;2.33;;;;;;;;;;10430774;28;20029;-78
2022/05/17 16:03:07;;;;;;;3.28;2.40;;;;;;;;;;10437749;28;20033;-79
2022/05/17 16:08:17;;;;;;;3.97;2.83;;;;;;;;;;10422912;28;20090;-80
2022/05/17 16:13:18;;;;;;;4.20;2.47;;;;;;;;;;10437553;28;20072;-80
2022/05/17 16:18:20;;;;;;;5.88;4.68;;;;;;;;;;10426188;28;20036;-79
2022/05/17 16:23:20;;;;;;;3.75;2.60;;;;;;;;;;10429831;28;20472;-79
2022/05/17 16:28:21;;;;;;;3.50;2.42;;;;;;;;;;10423890;28;20065;-80
2022/05/17 16:33:21;;;;;;;4.37;2.50;;;;;;;;;;10426537;28;20045;-80
2022/05/17 16:38:22;;;;;;;5.32;3.13;;;;;;;;;;10421570;28;20337;-79
2022/05/17 16:43:23;;;;;;;5.18;3.30;;;;;;;;;;10432546;28;20080;-79
2022/05/17 16:48:24;;;;;;;3.73;2.80;;;;;;;;;;10422913;28;20049;-79
2022/05/17 16:53:25;;;;;;;2.67;2.30;;;;;;;;;;10419995;28;20048;-79
2022/05/17 16:58:26;;;;;;;3.65;2.15;;;;;;;;;;10407565;28;20272;-78
2022/05/17 17:03:27;;;;;;;3.33;2.15;;;;;;;;;;10443084;28;20103;-80
2022/05/17 17:08:40;;;;;;;2.30;2.10;;;;;;;;;;10444363;28;20057;-79
2022/05/17 17:13:41;;;;;;;2.85;2.28;;;;;;;;;;10429721;28;20416;-80
2022/05/17 17:18:46;;;;;;;3.65;2.58;;;;;;;;;;10437673;28;20036;-78
2022/05/17 17:23:47;;;;;;;3.72;2.33;;;;;;;;;;10444342;28;20120;-78
2022/05/17 17:28:48;;;;;;;4.05;3.05;;;;;;;;;;10430650;28;20056;-78
2022/05/17 17:39:08;;;;;;;5.30;3.55;;;;;;;;;;10422952;28;20033;-78
2022/05/17 17:44:13;;;;;;;5.70;2.55;;;;;;;;;;10426014;28;20093;-79
2022/05/17 17:49:15;;;;;;;3.28;2.10;;;;;;;;;;10431425;28;20050;-79
2022/05/17 17:54:16;;;;;;;7.03;4.78;;;;;;;;;;10423784;28;20420;-77
2022/05/17 17:59:17;;;;;;;4.60;3.03;;;;;;;;;;10424617;28;20409;-77
2022/05/17 18:04:18;;;;;;;3.08;2.55;;;;;;;;;;10420128;28;20041;-79
2022/05/17 18:09:18;;;;;;;2.40;2.20;;;;;;;;;;10423987;28;20420;-77
2022/05/17 18:14:18;;;;;;;7.40;5.00;;;;;;;;;;10455745;28;20479;-78
2022/05/17 18:19:19;;;;;;;4.17;2.47;;;;;;;;;;10428225;28;20612;-78
2022/05/17 18:24:21;;;;;;;3.28;2.40;;;;;;;;;;10426159;28;20038;-78
2022/05/17 18:29:38;;;;;;;5.83;2.70;;;;;;;;;;10445015;28;20037;-78
2022/05/17 18:34:50;;;;;;;4.00;3.15;;;;;;;;;;10444947;28;20044;-81
2022/05/17 18:39:51;;;;;;;;;;;;;;;;;;10435155;28;20040;-79
2022/05/17 18:44:52;;;;;;;3.67;2.80;;;;;;;;;;10435724;28;20228;-82
2022/05/17 18:49:55;;;;;;;5.93;3.30;;;;;;;;;;10426757;28;20057;-78
2022/05/17 18:54:55;;;;;;;;;;;;;;;;;;10427832;28;20068;-77
2022/05/17 18:59:55;;;;;;;3.10;2.80;;;;;;;;;;10432376;28;19996;-78
2022/05/17 19:04:56;;;;;;;5.22;4.13;;;;;;;;;;10446632;28;20103;-78
2022/05/17 19:15:15;;;;;;;3.00;2.70;;;;;;;;;;10424278;28;20280;-81
2022/05/17 19:20:16;;;;;;;4.13;3.55;;;;;;;;;;10438414;28;20045;-78
2022/05/17 19:25:17;;;;;;;5.28;3.50;;;;;;;;;;10447693;28;20041;-78
2022/05/17 19:30:17;;;;;;;5.82;4.28;;;;;;;;;;10444343;28;20026;-78
2022/05/17 19:35:19;;;;;;;7.63;5.72;;;;;;;;;;10445787;28;20075;-78
2022/05/17 19:40:20;;;;;;;7.03;5.60;;;;;;;;;;10447199;28;20041;-77
2022/05/17 19:45:22;;;;;;;7.20;5.32;;;;;;;;;;10444841;28;20036;-76
2022/05/17 19:50:24;;;;;;;7.32;5.40;;;;;;;;;;10461889;28;20037;-79
2022/05/17 19:55:25;;;;;;;7.78;6.30;;;;;;;;;;10441712;28;20943;-77
2022/05/17 20:00:27;;;;;;;7.15;4.75;;;;;;;;;;10445695;28;20025;-78
2022/05/17 20:05:28;;;;;;;7.53;4.93;;;;;;;;;;10446694;28;20033;-77
2022/05/17 20:10:28;;;;;;;6.15;4.32;;;;;;;;;;10426287;28;20751;-77
2022/05/17 20:15:29;;;;;;;6.00;4.50;;;;;;;;;;10427404;28;20048;-76
2022/05/17 20:20:32;;;;;;;6.47;4.95;;;;;;;;;;10412550;28;20033;-77
2022/05/17 20:25:33;;;;;;;8.20;6.13;;;;;;;;;;10443529;28;20055;-77
2022/05/17 20:30:35;;;;;;;9.50;6.83;;;;;;;;;;10440393;28;20113;-77
2022/05/17 20:35:37;;;;;;;7.83;5.30;;;;;;;;;;10424118;28;20272;-76
2022/05/17 20:40:41;;;;;;;5.00;4.50;;;;;;;;;;10420102;28;20496;-77
2022/05/17 20:45:42;;;;;;;6.07;5.43;;;;;;;;;;10418211;28;20456;-77
2022/05/17 20:50:42;;;;;;;7.20;5.63;;;;;;;;;;10420200;28;20053;-77
2022/05/17 20:55:43;;;;;;;7.40;5.87;;;;;;;;;;10420487;28;20042;-78
2022/05/17 21:00:44;;;;;;;7.80;5.40;;;;;;;;;;10436221;28;20302;-80
2022/05/17 21:05:45;;;;;;;7.85;5.40;;;;;;;;;;10426033;28;20048;-76
2022/05/17 21:10:46;;;;;;;5.57;4.87;;;;;;;;;;10421655;28;20049;-77
2022/05/17 21:15:47;;;;;;;5.18;4.68;;;;;;;;;;10431218;28;20042;-77
2022/05/17 21:20:47;;;;;;;6.47;4.60;;;;;;;;;;10428984;28;20037;-76
2022/05/17 21:25:57;;;;;;;5.97;4.50;;;;;;;;;;10425084;28;20081;-76
2022/05/17 21:30:58;;;;;;;7.22;4.78;;;;;;;;;;10420149;28;20477;-76
2022/05/17 21:35:59;;;;;;;6.93;5.25;;;;;;;;;;10434405;28;20041;-76
2022/05/17 21:41:01;;;;;;;6.85;5.13;;;;;;;;;;10444910;28;20041;-76
2022/05/17 21:46:05;;;;;;;6.75;5.03;;;;;;;;;;10441997;28;20044;-76
2022/05/17 21:51:07;;;;;;;6.00;4.45;;;;;;;;;;10440094;28;20068;-77
2022/05/17 21:56:08;;;;;;;5.00;4.50;;;;;;;;;;10427687;28;20030;-77
2022/05/17 22:01:08;;;;;;;6.95;4.95;;;;;;;;;;10419431;28;20041;-77
2022/05/17 22:06:08;;;;;;;5.33;4.33;;;;;;;;;;10427847;28;20061;-79
2022/05/17 22:16:30;;;;;;;5.05;4.43;;;;;;;;;;10417300;28;20045;-78
2022/05/17 22:21:32;;;;;;;4.95;4.45;;;;;;;;;;10413435;28;20041;-79
2022/05/17 22:26:33;;;;;;;6.13;4.90;;;;;;;;;;10408425;28;20349;-77
2022/05/17 22:31:34;;;;;;;5.93;4.88;;;;;;;;;;10431157;28;20150;-76
2022/05/17 22:36:35;;;;;;;7.90;5.38;;;;;;;;;;10414910;28;20061;-77
2022/05/17 22:41:35;;;;;;;7.57;4.80;;;;;;;;;;10412505;28;20368;-76
2022/05/17 22:51:56;;;;;;;4.90;4.35;;;;;;;;;;10414015;28;20129;-77
2022/05/17 22:56:56;;;;;;;6.35;5.15;;;;;;;;;;10418168;28;20176;-76
2022/05/17 23:01:56;;;;;;;8.80;4.87;;;;;;;;;;10421093;28;20041;-76
2022/05/17 23:06:57;;;;;;;5.80;4.30;;;;;;;;;;10420406;28;20414;-75
2022/05/17 23:11:57;;;;;;;4.90;4.40;;;;;;;;;;10419128;28;20041;-76
2022/05/17 23:16:58;;;;;;;5.73;4.13;;;;;;;;;;10416536;28;20048;-76
2022/05/17 23:21:58;;;;;;;5.40;4.20;;;;;;;;;;10419038;28;20476;-76
2022/05/17 23:32:19;;;;;;;5.55;4.45;;;;;;;;;;10418617;28;20045;-76
2022/05/17 23:37:20;;;;;;;4.87;3.70;;;;;;;;;;10417759;28;20145;-76
2022/05/17 23:42:21;;;;;;;7.20;4.43;;;;;;;;;;10431775;28;20465;-74
2022/05/17 23:47:21;;;;;;;4.55;3.78;;;;;;;;;;10410896;28;20033;-76
2022/05/17 23:52:22;;;;;;;4.80;4.40;;;;;;;;;;10415295;28;20376;-76
2022/05/17 23:57:24;;;;;;;5.10;4.45;;;;;;;;;;10418221;28;20276;-76
